createdAt,value
2022-11-21T00:01:21.634Z,99538.00
2022-11-21T00:03:48.895Z,99538.84
2022-11-21T00:06:16.872Z,99538.75
2022-11-21T00:08:44.703Z,99536.72
2022-11-21T00:11:11.803Z,99533.06
2022-11-21T00:13:39.658Z,99525.72
2022-11-21T00:16:13.155Z,99522.84
2022-11-21T00:18:40.310Z,99527.97
2022-11-21T00:21:19.357Z,99522.03
2022-11-21T00:23:48.487Z,99521.94
2022-11-21T00:26:16.685Z,99517.84
2022-11-21T00:28:43.955Z,99515.22
2022-11-21T00:31:22.717Z,99517.13
2022-11-21T00:33:49.722Z,99519.88
2022-11-21T00:36:16.806Z,99510.31
2022-11-21T00:38:43.689Z,99504.88
2022-11-21T00:41:10.574Z,99503.69
2022-11-21T00:43:37.680Z,99504.94
2022-11-21T00:46:05.248Z,99512.28
2022-11-21T00:48:32.614Z,99516.03
2022-11-21T00:51:03.054Z,99524.38
2022-11-21T00:53:30.462Z,99520.81
2022-11-21T00:55:58.115Z,99516.91
2022-11-21T00:58:25.387Z,99506.81
2022-11-21T01:00:52.441Z,99509.53
2022-11-21T01:03:19.482Z,99503.97
2022-11-21T01:05:46.400Z,99506.34
2022-11-21T01:08:13.307Z,99493.44
2022-11-21T01:10:40.218Z,99498.81
2022-11-21T01:13:07.283Z,99488.84
2022-11-21T01:15:34.901Z,99483.13
2022-11-21T01:18:01.858Z,99494.69
2022-11-21T01:20:28.752Z,99492.81
2022-11-21T01:22:55.659Z,99486.91
2022-11-21T01:25:22.599Z,99483.50
2022-11-21T01:27:49.460Z,99480.03
2022-11-21T01:30:17.384Z,99476.47
2022-11-21T01:32:48.178Z,99478.69
2022-11-21T01:35:17.239Z,99475.25
2022-11-21T01:37:48.357Z,99480.75
2022-11-21T01:40:16.158Z,99476.78
2022-11-21T01:42:57.939Z,99473.56
2022-11-21T01:46:08.486Z,99471.75
2022-11-21T01:48:55.294Z,99468.53
2022-11-21T01:51:39.623Z,99461.25
2022-11-21T01:54:29.913Z,99468.03
2022-11-21T01:57:19.494Z,99452.25
2022-11-21T01:59:58.416Z,99449.56
2022-11-21T02:02:30.993Z,99453.31
2022-11-21T02:05:00.269Z,99452.19
2022-11-21T02:07:30.947Z,99450.19
2022-11-21T02:10:03.377Z,99455.00
2022-11-21T02:12:53.370Z,99449.94
2022-11-21T02:15:24.524Z,99448.56
2022-11-21T02:17:51.662Z,99451.84
2022-11-21T02:20:23.059Z,99453.88
2022-11-21T02:23:18.680Z,99461.53
2022-11-21T02:25:45.750Z,99472.28
2022-11-21T02:28:16.029Z,99461.53
2022-11-21T02:30:43.902Z,99455.00
2022-11-21T02:33:12.326Z,99444.09
2022-11-21T02:35:39.979Z,99442.72
2022-11-21T02:38:29.163Z,99446.97
2022-11-21T02:41:08.757Z,99445.53
2022-11-21T02:43:46.521Z,99450.03
2022-11-21T02:46:13.588Z,99445.53
2022-11-21T02:48:40.662Z,99448.03
2022-11-21T02:51:07.802Z,99443.69
2022-11-21T02:53:34.734Z,99443.38
2022-11-21T02:56:02.682Z,99453.63
2022-11-21T02:58:29.786Z,99444.97
2022-11-21T03:00:56.803Z,99438.31
2022-11-21T03:03:23.815Z,99446.00
2022-11-21T03:05:50.810Z,99439.31
2022-11-21T03:08:17.657Z,99442.75
2022-11-21T03:10:45.642Z,99444.00
2022-11-21T03:13:12.616Z,99446.13
2022-11-21T03:15:39.545Z,99441.91
2022-11-21T03:18:06.419Z,99443.69
2022-11-21T03:20:35.301Z,99449.94
2022-11-21T03:23:02.824Z,99441.47
2022-11-21T03:25:29.835Z,99447.31
2022-11-21T03:27:56.897Z,99450.19
2022-11-21T03:30:26.032Z,99450.56
2022-11-21T03:32:56.732Z,99445.25
2022-11-21T03:35:24.498Z,99448.03
2022-11-21T03:37:51.447Z,99450.47
2022-11-21T03:40:18.426Z,99446.41
2022-11-21T03:42:45.328Z,99440.69
2022-11-21T03:45:12.274Z,99446.13
2022-11-21T03:47:39.292Z,99455.00
2022-11-21T03:50:06.993Z,99446.81
2022-11-21T03:52:34.009Z,99456.75
2022-11-21T03:55:00.927Z,99460.28
2022-11-21T03:57:27.818Z,99459.19
2022-11-21T03:59:54.755Z,99450.50
2022-11-21T04:02:21.663Z,99448.50
2022-11-21T04:04:48.537Z,99444.91
2022-11-21T04:07:16.398Z,99436.44
2022-11-21T04:09:43.386Z,99438.03
2022-11-21T04:12:10.369Z,99446.59
2022-11-21T04:14:38.383Z,99451.03
2022-11-21T04:17:05.438Z,99450.97
2022-11-21T04:19:32.420Z,99441.81
2022-11-21T04:21:59.340Z,99448.91
2022-11-21T04:24:26.562Z,99443.75
2022-11-21T04:26:55.654Z,99444.69
2022-11-21T04:29:22.637Z,99441.09
2022-11-21T04:31:49.589Z,99438.25
2022-11-21T04:34:16.557Z,99442.66
2022-11-21T04:36:43.540Z,99443.47
2022-11-21T04:39:10.565Z,99441.38
2022-11-21T04:41:37.533Z,99445.88
2022-11-21T04:44:04.761Z,99447.44
2022-11-21T04:46:31.637Z,99448.56
2022-11-21T04:48:58.604Z,99451.53
2022-11-21T04:51:25.466Z,99440.00
2022-11-21T04:53:52.400Z,99454.25
2022-11-21T04:56:19.322Z,99448.22
2022-11-21T04:58:46.263Z,99449.00
2022-11-21T05:01:13.304Z,99447.81
2022-11-21T05:03:40.394Z,99437.25
2022-11-21T05:06:07.269Z,99442.78
2022-11-21T05:08:34.178Z,99449.03
2022-11-21T05:11:21.298Z,99440.47
2022-11-21T05:13:48.177Z,99434.16
2022-11-21T05:16:15.631Z,99436.19
2022-11-21T05:18:42.598Z,99437.59
2022-11-21T05:21:09.492Z,99447.91
2022-11-21T05:23:36.577Z,99452.91
2022-11-21T05:26:03.538Z,99455.00
2022-11-21T05:28:30.547Z,99457.59
2022-11-21T05:30:57.455Z,99451.66
2022-11-21T05:33:24.339Z,99450.66
2022-11-21T05:35:51.219Z,99451.00
2022-11-21T05:38:18.075Z,99451.59
2022-11-21T05:40:44.958Z,99446.25
2022-11-21T05:43:31.307Z,99448.19
2022-11-21T05:45:58.342Z,99450.22
2022-11-21T05:48:25.286Z,99444.38
2022-11-21T05:50:52.391Z,99447.22
2022-11-21T05:53:19.408Z,99439.06
2022-11-21T05:55:46.563Z,99449.59
2022-11-21T05:58:13.934Z,99439.31
2022-11-21T06:00:40.819Z,99444.53
2022-11-21T06:03:28.868Z,99446.66
2022-11-21T06:06:25.020Z,99433.50
2022-11-21T06:08:52.082Z,99438.59
2022-11-21T06:11:19.229Z,99450.47
2022-11-21T06:13:46.217Z,99438.69
2022-11-21T06:16:16.362Z,99443.88
2022-11-21T06:18:47.388Z,99439.06
2022-11-21T06:21:16.954Z,99440.38
2022-11-21T06:23:45.042Z,99453.41
2022-11-21T06:26:17.853Z,99440.84
2022-11-21T06:28:46.165Z,99449.59
2022-11-21T06:31:19.981Z,99436.34
2022-11-21T06:33:47.736Z,99439.81
2022-11-21T06:36:17.149Z,99440.19
2022-11-21T06:38:45.462Z,99437.78
2022-11-21T06:41:24.766Z,99456.31
2022-11-21T06:43:51.921Z,99445.53
2022-11-21T06:46:19.060Z,99445.06
2022-11-21T06:48:46.278Z,99438.94
2022-11-21T06:51:32.019Z,99430.00
2022-11-21T06:53:59.450Z,99443.56
2022-11-21T06:56:29.597Z,99429.72
2022-11-21T06:58:57.583Z,99423.50
2022-11-21T07:01:24.863Z,99427.28
2022-11-21T07:03:52.701Z,99440.13
2022-11-21T07:06:19.696Z,99448.56
2022-11-21T07:08:49.719Z,99453.97
2022-11-21T07:11:26.479Z,99458.19
2022-11-21T07:13:53.861Z,99457.22
2022-11-21T07:16:20.911Z,99441.78
2022-11-21T07:18:47.881Z,99449.03
2022-11-21T07:21:14.834Z,99459.09
2022-11-21T07:23:41.799Z,99461.94
2022-11-21T07:26:10.630Z,99464.31
2022-11-21T07:28:37.885Z,99458.78
2022-11-21T07:31:10.074Z,99463.66
2022-11-21T07:33:40.072Z,99467.38
2022-11-21T07:36:07.309Z,99460.88
2022-11-21T07:38:34.291Z,99465.38
2022-11-21T07:41:01.258Z,99469.13
2022-11-21T07:43:28.105Z,99482.06
2022-11-21T07:45:56.070Z,99485.91
2022-11-21T07:48:22.989Z,99473.34
2022-11-21T07:50:49.919Z,99476.25
2022-11-21T07:53:16.846Z,99464.47
2022-11-21T07:55:43.792Z,99468.34
2022-11-21T07:58:14.980Z,99464.72
2022-11-21T08:00:45.483Z,99463.34
2022-11-21T08:03:13.436Z,99455.56
2022-11-21T08:05:43.421Z,99463.25
2022-11-21T08:08:12.602Z,99456.63
2022-11-21T08:10:42.640Z,99454.19
2022-11-21T08:13:10.527Z,99454.28
2022-11-21T08:15:37.729Z,99452.47
2022-11-21T08:18:19.207Z,99443.81
2022-11-21T08:20:46.881Z,99448.03
2022-11-21T08:23:14.068Z,99435.69
2022-11-21T08:25:42.435Z,99433.91
2022-11-21T08:28:11.674Z,99434.47
2022-11-21T08:30:40.290Z,99429.75
2022-11-21T08:33:07.876Z,99427.09
2022-11-21T08:35:38.281Z,99424.16
2022-11-21T08:38:06.351Z,99417.59
2022-11-21T08:40:34.129Z,99423.91
2022-11-21T08:43:07.943Z,99428.88
2022-11-21T08:45:37.565Z,99421.47
2022-11-21T08:48:09.542Z,99422.66
2022-11-21T08:50:36.504Z,99408.72
2022-11-21T08:53:03.842Z,99390.69
2022-11-21T08:55:31.274Z,99400.47
2022-11-21T08:57:58.698Z,99401.53
2022-11-21T09:00:25.846Z,99408.66
2022-11-21T09:02:52.835Z,99403.66
2022-11-21T09:05:19.797Z,99389.16
2022-11-21T09:07:47.554Z,99394.88
2022-11-21T09:10:15.270Z,99367.53
2022-11-21T09:12:42.338Z,99369.66
2022-11-21T09:15:29.514Z,99365.16
2022-11-21T09:18:04.245Z,99366.03
2022-11-21T09:20:34.061Z,99362.47
2022-11-21T09:23:09.890Z,99365.00
2022-11-21T09:25:36.987Z,99363.19
2022-11-21T09:28:06.424Z,99369.59
2022-11-21T09:30:34.215Z,99374.69
2022-11-21T09:33:12.603Z,99359.88
2022-11-21T09:35:39.982Z,99352.00
2022-11-21T09:38:07.172Z,99347.13
2022-11-21T09:40:35.881Z,99352.63
2022-11-21T09:43:48.065Z,99356.84
2022-11-21T09:46:19.886Z,99353.50
2022-11-21T09:48:52.457Z,99347.53
2022-11-21T09:51:21.361Z,99343.13
2022-11-21T09:54:07.409Z,99352.56
2022-11-21T09:56:39.647Z,99348.50
2022-11-21T09:59:33.740Z,99342.03
2022-11-21T10:02:01.175Z,99341.16
2022-11-21T10:04:28.735Z,99332.72
2022-11-21T10:07:07.608Z,99328.59
2022-11-21T10:10:08.895Z,99317.22
2022-11-21T10:12:58.247Z,99322.53
2022-11-21T10:15:57.658Z,99318.75
2022-11-21T10:19:13.741Z,99319.78
2022-11-21T10:21:50.406Z,99306.34
2022-11-21T10:24:36.074Z,99294.19
2022-11-21T10:27:41.324Z,99284.31
2022-11-21T10:30:20.256Z,99264.47
2022-11-21T10:32:54.793Z,99270.31
2022-11-21T10:35:25.976Z,99269.84
2022-11-21T10:37:56.276Z,99280.91
2022-11-21T10:40:38.274Z,99266.13
2022-11-21T10:43:44.073Z,99259.63
2022-11-21T10:46:11.022Z,99258.53
2022-11-21T10:48:38.009Z,99262.56
2022-11-21T10:51:14.204Z,99238.66
2022-11-21T10:54:04.583Z,99232.56
2022-11-21T10:56:35.912Z,99221.78
2022-11-21T10:59:30.899Z,99210.50
2022-11-21T11:02:20.088Z,99213.72
2022-11-21T11:04:51.977Z,99199.59
2022-11-21T11:07:37.660Z,99199.38
2022-11-21T11:10:28.523Z,99180.50
2022-11-21T11:13:44.538Z,99177.19
2022-11-21T11:16:10.744Z,99164.09
2022-11-21T11:19:14.753Z,99156.75
2022-11-21T11:21:46.994Z,99156.13
2022-11-21T11:24:13.772Z,99157.47
2022-11-21T11:26:51.440Z,99137.81
2022-11-21T11:29:28.413Z,99135.59
2022-11-21T11:32:00.775Z,99132.06
2022-11-21T11:34:40.497Z,99136.00
2022-11-21T11:37:15.197Z,99128.84
2022-11-21T11:39:56.058Z,99138.25
2022-11-21T11:42:59.636Z,99124.38
2022-11-21T11:46:16.281Z,99131.00
2022-11-21T11:49:11.495Z,99126.50
2022-11-21T11:51:40.589Z,99114.44
2022-11-21T11:54:29.182Z,99115.06
2022-11-21T11:56:57.567Z,99099.41
2022-11-21T11:59:30.152Z,99107.03
2022-11-21T12:02:07.552Z,99090.06
2022-11-21T12:04:57.722Z,99082.59
2022-11-21T12:11:11.520Z,99072.72
2022-11-21T12:13:40.218Z,99075.19
2022-11-21T12:16:14.008Z,99058.25
2022-11-21T12:19:05.500Z,99064.34
2022-11-21T12:21:32.531Z,99066.78
2022-11-21T12:24:04.331Z,99057.00
2022-11-21T12:26:59.042Z,99040.13
2022-11-21T12:30:21.034Z,99022.53
2022-11-21T12:33:10.390Z,99017.69
2022-11-21T12:36:38.469Z,99015.59
2022-11-21T12:39:37.928Z,99009.31
2022-11-21T12:42:37.594Z,99013.41
2022-11-21T12:45:11.291Z,99016.41
2022-11-21T12:48:17.566Z,99014.66
2022-11-21T12:51:45.991Z,99013.38
2022-11-21T12:54:39.076Z,99007.25
2022-11-21T12:57:14.697Z,99007.44
2022-11-21T13:00:09.789Z,98990.34
2022-11-21T13:03:14.561Z,98987.19
2022-11-21T13:05:47.224Z,98981.97
2022-11-21T13:08:24.655Z,98973.59
2022-11-21T13:11:48.470Z,98965.09
2022-11-21T13:14:29.942Z,98957.00
2022-11-21T13:17:25.827Z,98964.72
2022-11-21T13:20:22.777Z,98963.34
2022-11-21T13:23:00.800Z,98955.97
2022-11-21T13:25:39.542Z,98949.81
2022-11-21T13:28:18.712Z,98942.66
2022-11-21T13:30:54.348Z,98948.22
2022-11-21T13:33:37.205Z,98945.63
2022-11-21T13:36:29.082Z,98943.47
2022-11-21T13:38:58.802Z,98949.38
2022-11-21T13:41:53.223Z,98933.25
2022-11-21T13:44:34.649Z,98931.53
2022-11-21T13:47:15.342Z,98924.44
2022-11-21T13:50:30.309Z,98907.06
2022-11-21T13:53:40.429Z,98908.13
2022-11-21T13:56:37.528Z,98910.09
2022-11-21T13:59:25.871Z,98912.06
2022-11-21T14:02:26.403Z,98909.28
2022-11-21T14:05:46.038Z,98903.25
2022-11-21T14:08:21.042Z,98894.22
2022-11-21T14:10:51.273Z,98897.50
2022-11-21T14:13:31.070Z,98889.53
2022-11-21T14:16:38.149Z,98881.22
2022-11-21T14:19:05.912Z,98871.25
2022-11-21T14:21:34.114Z,98866.94
2022-11-21T14:24:14.509Z,98848.03
2022-11-21T14:26:47.316Z,98839.63
2022-11-21T14:29:32.303Z,98830.22
2022-11-21T14:31:59.401Z,98833.94
2022-11-21T14:34:28.655Z,98825.81
2022-11-21T14:37:00.517Z,98802.69
2022-11-21T14:39:43.718Z,98813.47
2022-11-21T14:42:17.730Z,98808.50
2022-11-21T14:44:44.732Z,98806.28
2022-11-21T14:47:25.342Z,98796.25
2022-11-21T14:49:57.025Z,98798.28
2022-11-21T14:52:30.501Z,98789.28
2022-11-21T14:55:29.557Z,98801.50
2022-11-21T14:57:47.927Z,98782.56
2022-11-21T15:03:20.899Z,98761.22
2022-11-21T15:06:07.340Z,98750.16
2022-11-21T15:11:39.086Z,98756.16
2022-11-21T15:14:32.264Z,98755.94
2022-11-21T15:17:01.465Z,98752.97
2022-11-21T15:19:29.861Z,98727.50
2022-11-21T15:22:00.686Z,98727.94
2022-11-21T15:24:42.464Z,98732.31
2022-11-21T15:27:32.610Z,98704.44
2022-11-21T15:30:25.753Z,98678.25
2022-11-21T15:33:16.778Z,98665.78
2022-11-21T15:35:55.341Z,98660.59
2022-11-21T15:38:42.848Z,98673.56
2022-11-21T15:41:09.689Z,98672.66
2022-11-21T15:43:43.359Z,98671.78
2022-11-21T15:46:30.850Z,98676.09
2022-11-21T15:49:31.003Z,98666.41
2022-11-21T15:54:40.229Z,98632.88
2022-11-21T15:57:09.170Z,98624.81
2022-11-21T15:57:14.482Z,98641.41
2022-11-21T15:59:36.056Z,98604.56
2022-11-21T16:02:03.277Z,98597.38
2022-11-21T16:04:30.345Z,98605.22
2022-11-21T16:06:57.357Z,98607.19
2022-11-21T16:09:25.144Z,98605.28
2022-11-21T16:11:52.016Z,98594.59
2022-11-21T16:14:18.905Z,98586.75
2022-11-21T16:16:47.363Z,98593.00
2022-11-21T16:19:15.982Z,98591.72
2022-11-21T16:21:43.342Z,98595.13
2022-11-21T16:24:10.407Z,98582.16
2022-11-21T16:26:37.522Z,98569.66
2022-11-21T16:29:05.689Z,98570.22
2022-11-21T16:31:33.180Z,98563.28
2022-11-21T16:34:00.813Z,98554.28
2022-11-21T16:36:30.267Z,98543.25
2022-11-21T16:39:01.760Z,98526.94
2022-11-21T16:41:32.391Z,98522.13
2022-11-21T16:43:59.338Z,98540.09
2022-11-21T16:46:26.297Z,98541.13
2022-11-21T16:49:02.221Z,98538.72
2022-11-21T16:51:30.315Z,98544.78
2022-11-21T16:54:01.599Z,98553.03
2022-11-21T16:56:31.526Z,98549.47
2022-11-21T16:58:58.477Z,98533.16
2022-11-21T17:01:28.044Z,98508.84
2022-11-21T17:03:55.155Z,98513.38
2022-11-21T17:06:27.110Z,98518.78
2022-11-21T17:08:54.209Z,98541.72
2022-11-21T17:11:28.111Z,98558.16
2022-11-21T17:13:57.074Z,98547.00
2022-11-21T17:16:24.165Z,98535.75
2022-11-21T17:18:56.935Z,98536.88
2022-11-21T17:21:24.380Z,98525.56
2022-11-21T17:23:51.696Z,98509.63
2022-11-21T17:26:24.332Z,98487.13
2022-11-21T17:29:00.563Z,98482.06
2022-11-21T17:31:28.049Z,98486.69
2022-11-21T17:33:59.194Z,98473.47
2022-11-21T17:36:28.916Z,98470.72
2022-11-21T17:38:56.235Z,98456.81
2022-11-21T17:41:24.539Z,98457.00
2022-11-21T17:43:56.773Z,98459.09
2022-11-21T17:46:28.326Z,98451.53
2022-11-21T17:48:58.368Z,98456.28
2022-11-21T17:51:33.305Z,98462.63
2022-11-21T17:54:01.614Z,98465.00
2022-11-21T17:56:32.579Z,98465.91
2022-11-21T17:59:00.279Z,98470.78
2022-11-21T18:01:27.631Z,98466.25
2022-11-21T18:04:01.846Z,98467.34
2022-11-21T18:06:38.048Z,98472.22
2022-11-21T18:09:07.590Z,98467.25
2022-11-21T18:11:39.855Z,98460.06
2022-11-21T18:14:09.803Z,98455.06
2022-11-21T18:16:39.353Z,98463.50
2022-11-21T18:19:07.094Z,98459.31
2022-11-21T18:21:37.587Z,98448.97
2022-11-21T18:24:04.751Z,98449.47
2022-11-21T18:26:35.690Z,98451.19
2022-11-21T18:29:35.786Z,98447.34
2022-11-21T18:31:53.254Z,98454.47
2022-11-21T18:34:20.351Z,98453.63
2022-11-21T18:36:47.749Z,98459.84
2022-11-21T18:39:27.104Z,98446.81
2022-11-21T18:41:54.086Z,98454.06
2022-11-21T18:44:22.485Z,98463.56
2022-11-21T18:46:50.213Z,98460.94
2022-11-21T18:49:17.971Z,98459.94
2022-11-21T18:51:45.134Z,98456.28
2022-11-21T18:54:12.956Z,98453.88
2022-11-21T18:56:40.380Z,98459.66
2022-11-21T18:59:08.000Z,98460.69
2022-11-21T19:01:36.865Z,98453.28
2022-11-21T19:04:04.285Z,98448.53
2022-11-21T19:06:31.834Z,98446.63
2022-11-21T19:08:59.187Z,98442.94
2022-11-21T19:11:29.379Z,98447.25
2022-11-21T19:13:58.093Z,98443.09
2022-11-21T19:16:31.078Z,98439.44
2022-11-21T19:21:45.801Z,98426.75
2022-11-21T19:24:14.455Z,98426.41
2022-11-21T19:26:42.697Z,98425.88
2022-11-21T19:29:10.585Z,98432.50
2022-11-21T19:31:44.090Z,98436.28
2022-11-21T19:34:14.138Z,98429.91
2022-11-21T19:36:41.602Z,98433.88
2022-11-21T19:39:08.988Z,98437.00
2022-11-21T19:41:36.088Z,98439.94
2022-11-21T19:44:03.781Z,98431.72
2022-11-21T19:46:34.971Z,98422.94
2022-11-21T19:49:02.605Z,98416.66
2022-11-21T19:51:36.097Z,98415.22
2022-11-21T19:54:07.849Z,98418.00
2022-11-21T19:56:35.877Z,98414.63
2022-11-21T19:59:03.008Z,98421.47
2022-11-21T20:01:32.515Z,98417.56
2022-11-21T20:04:02.659Z,98412.50
2022-11-21T20:06:36.277Z,98401.16
2022-11-21T20:09:14.643Z,98410.03
2022-11-21T20:11:45.198Z,98422.50
2022-11-21T20:14:21.890Z,98421.50
2022-11-21T20:16:51.537Z,98413.75
2022-11-21T20:19:21.387Z,98423.34
2022-11-21T20:21:48.511Z,98410.59
2022-11-21T20:24:17.138Z,98412.06
2022-11-21T20:26:45.221Z,98416.50
2022-11-21T20:29:15.967Z,98417.13
2022-11-21T20:31:43.263Z,98409.84
2022-11-21T20:34:13.933Z,98408.72
2022-11-21T20:36:41.954Z,98407.94
2022-11-21T20:39:15.475Z,98412.59
2022-11-21T20:41:42.645Z,98412.75
2022-11-21T20:45:07.032Z,98411.97
2022-11-21T20:47:02.020Z,98398.94
2022-11-21T20:49:32.225Z,98398.13
2022-11-21T20:54:48.538Z,98398.66
2022-11-21T20:57:15.847Z,98398.50
2022-11-21T20:59:43.290Z,98399.81
2022-11-21T21:02:14.331Z,98390.22
2022-11-21T21:04:41.898Z,98390.00
2022-11-21T21:07:09.096Z,98394.03
2022-11-21T21:09:36.079Z,98393.59
2022-11-21T21:12:03.203Z,98392.44
2022-11-21T21:14:30.172Z,98388.63
2022-11-21T21:16:57.235Z,98374.75
2022-11-21T21:19:24.138Z,98369.84
2022-11-21T21:21:51.109Z,98358.06
2022-11-21T21:24:18.346Z,98372.34
2022-11-21T21:26:47.661Z,98375.53
2022-11-21T21:29:19.491Z,98371.38
2022-11-21T21:31:51.060Z,98374.59
2022-11-21T21:34:20.847Z,98366.50
2022-11-21T21:36:48.697Z,98370.66
2022-11-21T21:39:15.744Z,98369.50
2022-11-21T21:41:46.031Z,98363.81
2022-11-21T21:44:14.088Z,98366.22
2022-11-21T21:46:41.166Z,98362.16
2022-11-21T21:49:08.309Z,98359.97
2022-11-21T21:51:37.126Z,98366.16
2022-11-21T21:54:04.952Z,98360.19
2022-11-21T21:56:31.899Z,98359.03
2022-11-21T21:58:59.531Z,98358.31
2022-11-21T22:01:29.890Z,98350.19
2022-11-21T22:04:00.384Z,98357.66
2022-11-21T22:06:27.582Z,98361.13
2022-11-21T22:08:55.945Z,98355.59
2022-11-21T22:11:29.144Z,98367.84
2022-11-21T22:14:02.477Z,98355.66
2022-11-21T22:16:30.502Z,98340.06
2022-11-21T22:18:58.041Z,98334.41
2022-11-21T22:21:35.108Z,98344.22
2022-11-21T22:24:38.778Z,98342.94
2022-11-21T22:26:59.189Z,98351.84
2022-11-21T22:29:26.176Z,98354.09
2022-11-21T22:31:53.167Z,98337.94
2022-11-21T22:34:20.271Z,98348.81
2022-11-21T22:36:47.473Z,98348.28
2022-11-21T22:39:15.577Z,98345.47
2022-11-21T22:41:42.458Z,98333.38
2022-11-21T22:44:09.507Z,98324.94
2022-11-21T22:46:37.475Z,98314.38
2022-11-21T22:49:04.369Z,98331.31
2022-11-21T22:51:31.347Z,98334.16
2022-11-21T22:53:58.306Z,98325.16
2022-11-21T22:56:26.553Z,98326.84
2022-11-21T22:58:54.145Z,98328.28
2022-11-21T23:01:24.630Z,98325.81
2022-11-21T23:03:52.481Z,98327.81
2022-11-21T23:06:23.733Z,98338.06
2022-11-21T23:08:52.705Z,98337.53
2022-11-21T23:11:27.470Z,98326.38
2022-11-21T23:13:55.896Z,98321.03
2022-11-21T23:16:23.116Z,98321.88
2022-11-21T23:18:53.515Z,98329.00
2022-11-21T23:21:21.369Z,98325.00
2022-11-21T23:23:48.458Z,98330.25
2022-11-21T23:26:15.679Z,98327.63
2022-11-21T23:28:42.738Z,98313.09
2022-11-21T23:31:10.771Z,98319.22
2022-11-21T23:33:37.714Z,98331.44
2022-11-21T23:36:05.101Z,98328.66
2022-11-21T23:38:32.232Z,98325.66
2022-11-21T23:40:59.139Z,98320.84
2022-11-21T23:43:27.256Z,98324.41
2022-11-21T23:45:54.905Z,98315.28
2022-11-21T23:48:24.104Z,98307.44
2022-11-21T23:50:51.537Z,98306.19
2022-11-21T23:53:20.122Z,98316.44
2022-11-21T23:55:47.473Z,98308.41
2022-11-21T23:58:15.341Z,98305.81
